sensor_id;sensor_type;location;lat;lon;timestamp;P1;durP1;ratioP1;P2;durP2;ratioP2
54993;SDS011;40891;47.242;8.648;2022-11-14T00:02:05;18.60;;;11.43;;
54993;SDS011;40891;47.242;8.648;2022-11-14T00:04:31;20.10;;;11.77;;
54993;SDS011;40891;47.242;8.648;2022-11-14T00:06:56;19.80;;;11.27;;
54993;SDS011;40891;47.242;8.648;2022-11-14T00:09:25;18.17;;;10.83;;
54993;SDS011;40891;47.242;8.648;2022-11-14T00:11:51;20.40;;;11.83;;
54993;SDS011;40891;47.242;8.648;2022-11-14T00:14:17;16.00;;;10.93;;
54993;SDS011;40891;47.242;8.648;2022-11-14T00:16:42;15.87;;;10.37;;
54993;SDS011;40891;47.242;8.648;2022-11-14T00:19:07;17.83;;;10.53;;
54993;SDS011;40891;47.242;8.648;2022-11-14T00:21:33;17.37;;;11.00;;
54993;SDS011;40891;47.242;8.648;2022-11-14T00:23:58;14.43;;;10.40;;
54993;SDS011;40891;47.242;8.648;2022-11-14T00:26:23;15.63;;;10.10;;
54993;SDS011;40891;47.242;8.648;2022-11-14T00:28:49;18.40;;;10.47;;
54993;SDS011;40891;47.242;8.648;2022-11-14T00:31:14;16.87;;;10.83;;
54993;SDS011;40891;47.242;8.648;2022-11-14T00:33:40;17.20;;;9.63;;
54993;SDS011;40891;47.242;8.648;2022-11-14T00:36:05;15.37;;;9.73;;
54993;SDS011;40891;47.242;8.648;2022-11-14T00:38:31;15.60;;;9.10;;
54993;SDS011;40891;47.242;8.648;2022-11-14T00:40:56;15.40;;;9.67;;
54993;SDS011;40891;47.242;8.648;2022-11-14T00:43:21;13.63;;;9.20;;
54993;SDS011;40891;47.242;8.648;2022-11-14T00:45:46;13.53;;;9.23;;
54993;SDS011;40891;47.242;8.648;2022-11-14T00:48:13;13.93;;;9.03;;
54993;SDS011;40891;47.242;8.648;2022-11-14T00:50:39;12.63;;;9.07;;
54993;SDS011;40891;47.242;8.648;2022-11-14T00:53:04;14.57;;;9.70;;
54993;SDS011;40891;47.242;8.648;2022-11-14T00:55:30;13.17;;;9.60;;
54993;SDS011;40891;47.242;8.648;2022-11-14T00:57:55;16.93;;;10.50;;
54993;SDS011;40891;47.242;8.648;2022-11-14T01:00:20;15.53;;;10.43;;
54993;SDS011;40891;47.242;8.648;2022-11-14T01:02:45;16.60;;;10.07;;
54993;SDS011;40891;47.242;8.648;2022-11-14T01:05:11;19.47;;;10.80;;
54993;SDS011;40891;47.242;8.648;2022-11-14T01:07:36;17.30;;;10.80;;
54993;SDS011;40891;47.242;8.648;2022-11-14T01:10:02;21.83;;;11.63;;
54993;SDS011;40891;47.242;8.648;2022-11-14T01:12:28;17.40;;;10.83;;
54993;SDS011;40891;47.242;8.648;2022-11-14T01:14:53;19.20;;;11.27;;
54993;SDS011;40891;47.242;8.648;2022-11-14T01:17:18;18.10;;;10.50;;
54993;SDS011;40891;47.242;8.648;2022-11-14T01:19:44;17.03;;;10.60;;
54993;SDS011;40891;47.242;8.648;2022-11-14T01:22:09;15.00;;;10.10;;
54993;SDS011;40891;47.242;8.648;2022-11-14T01:24:34;14.70;;;9.20;;
54993;SDS011;40891;47.242;8.648;2022-11-14T01:27:00;14.87;;;9.40;;
54993;SDS011;40891;47.242;8.648;2022-11-14T01:29:25;12.77;;;8.80;;
54993;SDS011;40891;47.242;8.648;2022-11-14T01:31:50;13.60;;;8.57;;
54993;SDS011;40891;47.242;8.648;2022-11-14T01:34:16;14.20;;;9.23;;
54993;SDS011;40891;47.242;8.648;2022-11-14T01:36:41;13.77;;;8.57;;
54993;SDS011;40891;47.242;8.648;2022-11-14T01:39:06;15.00;;;9.00;;
54993;SDS011;40891;47.242;8.648;2022-11-14T01:41:32;13.03;;;8.90;;
54993;SDS011;40891;47.242;8.648;2022-11-14T01:43:57;14.23;;;8.67;;
54993;SDS011;40891;47.242;8.648;2022-11-14T01:46:33;16.20;;;9.63;;
54993;SDS011;40891;47.242;8.648;2022-11-14T01:51:40;17.30;;;9.60;;
54993;SDS011;40891;47.242;8.648;2022-11-14T01:54:11;17.87;;;10.53;;
54993;SDS011;40891;47.242;8.648;2022-11-14T01:56:44;14.50;;;9.83;;
54993;SDS011;40891;47.242;8.648;2022-11-14T01:59:18;18.43;;;10.17;;
54993;SDS011;40891;47.242;8.648;2022-11-14T02:01:48;14.10;;;9.20;;
54993;SDS011;40891;47.242;8.648;2022-11-14T02:04:19;14.53;;;9.10;;
54993;SDS011;40891;47.242;8.648;2022-11-14T02:06:48;15.47;;;10.10;;
54993;SDS011;40891;47.242;8.648;2022-11-14T02:09:15;17.93;;;9.27;;
54993;SDS011;40891;47.242;8.648;2022-11-14T02:11:42;17.03;;;10.03;;
54993;SDS011;40891;47.242;8.648;2022-11-14T02:14:09;17.10;;;10.43;;
54993;SDS011;40891;47.242;8.648;2022-11-14T02:16:35;16.47;;;10.37;;
54993;SDS011;40891;47.242;8.648;2022-11-14T02:19:01;18.00;;;11.47;;
54993;SDS011;40891;47.242;8.648;2022-11-14T02:21:28;18.53;;;11.70;;
54993;SDS011;40891;47.242;8.648;2022-11-14T02:23:53;17.27;;;11.23;;
54993;SDS011;40891;47.242;8.648;2022-11-14T02:26:19;17.03;;;10.73;;
54993;SDS011;40891;47.242;8.648;2022-11-14T02:28:45;16.13;;;10.13;;
54993;SDS011;40891;47.242;8.648;2022-11-14T02:31:12;18.33;;;11.73;;
54993;SDS011;40891;47.242;8.648;2022-11-14T02:33:38;18.13;;;10.93;;
54993;SDS011;40891;47.242;8.648;2022-11-14T02:36:04;20.87;;;13.30;;
54993;SDS011;40891;47.242;8.648;2022-11-14T02:38:30;20.70;;;12.90;;
54993;SDS011;40891;47.242;8.648;2022-11-14T02:40:55;20.20;;;12.03;;
54993;SDS011;40891;47.242;8.648;2022-11-14T02:43:23;22.97;;;12.60;;
54993;SDS011;40891;47.242;8.648;2022-11-14T02:45:49;20.27;;;12.77;;
54993;SDS011;40891;47.242;8.648;2022-11-14T02:48:14;21.07;;;12.60;;
54993;SDS011;40891;47.242;8.648;2022-11-14T02:50:40;21.43;;;13.00;;
54993;SDS011;40891;47.242;8.648;2022-11-14T02:53:05;22.43;;;13.93;;
54993;SDS011;40891;47.242;8.648;2022-11-14T02:55:30;20.57;;;13.27;;
54993;SDS011;40891;47.242;8.648;2022-11-14T02:57:56;23.20;;;13.13;;
54993;SDS011;40891;47.242;8.648;2022-11-14T03:00:21;23.23;;;13.93;;
54993;SDS011;40891;47.242;8.648;2022-11-14T03:02:46;21.37;;;13.10;;
54993;SDS011;40891;47.242;8.648;2022-11-14T03:05:12;19.57;;;12.23;;
54993;SDS011;40891;47.242;8.648;2022-11-14T03:07:37;22.20;;;13.00;;
54993;SDS011;40891;47.242;8.648;2022-11-14T03:10:03;21.33;;;13.40;;
54993;SDS011;40891;47.242;8.648;2022-11-14T03:12:29;21.87;;;13.20;;
54993;SDS011;40891;47.242;8.648;2022-11-14T03:14:54;19.00;;;12.23;;
54993;SDS011;40891;47.242;8.648;2022-11-14T03:17:19;18.97;;;12.80;;
54993;SDS011;40891;47.242;8.648;2022-11-14T03:19:48;19.23;;;12.97;;
54993;SDS011;40891;47.242;8.648;2022-11-14T03:22:13;19.67;;;12.77;;
54993;SDS011;40891;47.242;8.648;2022-11-14T03:24:39;23.77;;;13.20;;
54993;SDS011;40891;47.242;8.648;2022-11-14T03:27:04;19.57;;;12.63;;
54993;SDS011;40891;47.242;8.648;2022-11-14T03:29:29;19.27;;;12.37;;
54993;SDS011;40891;47.242;8.648;2022-11-14T03:31:55;20.80;;;12.67;;
54993;SDS011;40891;47.242;8.648;2022-11-14T03:34:20;22.33;;;13.43;;
54993;SDS011;40891;47.242;8.648;2022-11-14T03:36:47;18.23;;;12.27;;
54993;SDS011;40891;47.242;8.648;2022-11-14T03:39:12;18.40;;;12.60;;
54993;SDS011;40891;47.242;8.648;2022-11-14T03:41:37;19.57;;;12.37;;
54993;SDS011;40891;47.242;8.648;2022-11-14T03:44:03;21.37;;;13.50;;
54993;SDS011;40891;47.242;8.648;2022-11-14T03:46:28;18.07;;;11.90;;
54993;SDS011;40891;47.242;8.648;2022-11-14T03:48:53;17.33;;;12.27;;
54993;SDS011;40891;47.242;8.648;2022-11-14T03:51:19;17.77;;;12.03;;
54993;SDS011;40891;47.242;8.648;2022-11-14T03:53:44;19.83;;;12.63;;
54993;SDS011;40891;47.242;8.648;2022-11-14T03:56:09;18.30;;;11.90;;
54993;SDS011;40891;47.242;8.648;2022-11-14T03:58:35;17.57;;;11.27;;
54993;SDS011;40891;47.242;8.648;2022-11-14T04:01:00;18.33;;;11.97;;
54993;SDS011;40891;47.242;8.648;2022-11-14T04:03:25;17.70;;;11.67;;
54993;SDS011;40891;47.242;8.648;2022-11-14T04:05:51;18.30;;;11.70;;
54993;SDS011;40891;47.242;8.648;2022-11-14T04:08:16;18.93;;;12.20;;
54993;SDS011;40891;47.242;8.648;2022-11-14T04:10:42;16.87;;;11.80;;
54993;SDS011;40891;47.242;8.648;2022-11-14T04:13:11;15.37;;;10.80;;
54993;SDS011;40891;47.242;8.648;2022-11-14T04:15:36;15.87;;;11.17;;
54993;SDS011;40891;47.242;8.648;2022-11-14T04:18:01;17.40;;;11.47;;
54993;SDS011;40891;47.242;8.648;2022-11-14T04:20:27;17.03;;;11.53;;
54993;SDS011;40891;47.242;8.648;2022-11-14T04:22:52;17.57;;;11.27;;
54993;SDS011;40891;47.242;8.648;2022-11-14T04:25:17;16.50;;;10.50;;
54993;SDS011;40891;47.242;8.648;2022-11-14T04:27:43;16.20;;;10.73;;
54993;SDS011;40891;47.242;8.648;2022-11-14T04:30:08;15.90;;;11.33;;
54993;SDS011;40891;47.242;8.648;2022-11-14T04:32:34;14.40;;;9.90;;
54993;SDS011;40891;47.242;8.648;2022-11-14T04:34:59;16.67;;;9.97;;
54993;SDS011;40891;47.242;8.648;2022-11-14T04:37:24;16.17;;;10.27;;
54993;SDS011;40891;47.242;8.648;2022-11-14T04:39:49;13.80;;;9.73;;
54993;SDS011;40891;47.242;8.648;2022-11-14T04:42:15;14.47;;;9.60;;
54993;SDS011;40891;47.242;8.648;2022-11-14T04:44:40;13.13;;;9.43;;
54993;SDS011;40891;47.242;8.648;2022-11-14T04:47:05;12.23;;;8.53;;
54993;SDS011;40891;47.242;8.648;2022-11-14T04:49:31;13.67;;;9.23;;
54993;SDS011;40891;47.242;8.648;2022-11-14T04:51:56;13.20;;;9.23;;
54993;SDS011;40891;47.242;8.648;2022-11-14T04:54:21;11.03;;;8.60;;
54993;SDS011;40891;47.242;8.648;2022-11-14T04:56:47;13.03;;;8.27;;
54993;SDS011;40891;47.242;8.648;2022-11-14T04:59:12;12.90;;;8.33;;
54993;SDS011;40891;47.242;8.648;2022-11-14T05:01:37;12.13;;;8.50;;
54993;SDS011;40891;47.242;8.648;2022-11-14T05:04:03;13.80;;;8.87;;
54993;SDS011;40891;47.242;8.648;2022-11-14T05:06:28;9.63;;;6.87;;
54993;SDS011;40891;47.242;8.648;2022-11-14T05:08:54;10.07;;;6.67;;
54993;SDS011;40891;47.242;8.648;2022-11-14T05:11:19;10.63;;;7.47;;
54993;SDS011;40891;47.242;8.648;2022-11-14T05:13:45;9.47;;;7.10;;
54993;SDS011;40891;47.242;8.648;2022-11-14T05:16:10;10.00;;;7.00;;
54993;SDS011;40891;47.242;8.648;2022-11-14T05:18:36;10.40;;;6.63;;
54993;SDS011;40891;47.242;8.648;2022-11-14T05:21:03;9.00;;;6.33;;
54993;SDS011;40891;47.242;8.648;2022-11-14T05:23:29;12.33;;;5.80;;
54993;SDS011;40891;47.242;8.648;2022-11-14T05:26:01;8.27;;;5.63;;
54993;SDS011;40891;47.242;8.648;2022-11-14T05:28:28;11.40;;;6.20;;
54993;SDS011;40891;47.242;8.648;2022-11-14T05:30:59;10.47;;;6.60;;
54993;SDS011;40891;47.242;8.648;2022-11-14T05:33:25;10.37;;;6.83;;
54993;SDS011;40891;47.242;8.648;2022-11-14T05:35:51;8.53;;;6.73;;
54993;SDS011;40891;47.242;8.648;2022-11-14T05:38:16;10.13;;;6.70;;
54993;SDS011;40891;47.242;8.648;2022-11-14T05:40:41;9.73;;;6.67;;
54993;SDS011;40891;47.242;8.648;2022-11-14T05:43:07;10.47;;;7.13;;
54993;SDS011;40891;47.242;8.648;2022-11-14T05:45:32;10.33;;;7.27;;
54993;SDS011;40891;47.242;8.648;2022-11-14T05:47:57;10.00;;;6.90;;
54993;SDS011;40891;47.242;8.648;2022-11-14T05:50:23;12.97;;;6.97;;
54993;SDS011;40891;47.242;8.648;2022-11-14T05:52:48;11.63;;;6.37;;
54993;SDS011;40891;47.242;8.648;2022-11-14T05:55:13;12.23;;;7.53;;
54993;SDS011;40891;47.242;8.648;2022-11-14T05:57:39;9.67;;;7.13;;
54993;SDS011;40891;47.242;8.648;2022-11-14T06:00:04;11.03;;;8.03;;
54993;SDS011;40891;47.242;8.648;2022-11-14T06:02:30;11.63;;;7.73;;
54993;SDS011;40891;47.242;8.648;2022-11-14T06:04:55;12.63;;;8.23;;
54993;SDS011;40891;47.242;8.648;2022-11-14T06:07:20;11.23;;;8.27;;
54993;SDS011;40891;47.242;8.648;2022-11-14T06:09:46;12.27;;;8.20;;
54993;SDS011;40891;47.242;8.648;2022-11-14T06:12:11;12.03;;;8.03;;
54993;SDS011;40891;47.242;8.648;2022-11-14T06:14:36;15.37;;;8.40;;
54993;SDS011;40891;47.242;8.648;2022-11-14T06:17:02;12.27;;;7.43;;
54993;SDS011;40891;47.242;8.648;2022-11-14T06:19:27;12.63;;;8.73;;
54993;SDS011;40891;47.242;8.648;2022-11-14T06:21:52;12.77;;;9.13;;
54993;SDS011;40891;47.242;8.648;2022-11-14T06:24:18;12.80;;;9.07;;
54993;SDS011;40891;47.242;8.648;2022-11-14T06:26:43;13.67;;;9.60;;
54993;SDS011;40891;47.242;8.648;2022-11-14T06:29:10;14.57;;;9.27;;
54993;SDS011;40891;47.242;8.648;2022-11-14T06:31:35;11.80;;;7.87;;
54993;SDS011;40891;47.242;8.648;2022-11-14T06:34:00;12.67;;;8.63;;
54993;SDS011;40891;47.242;8.648;2022-11-14T06:36:28;16.87;;;9.10;;
54993;SDS011;40891;47.242;8.648;2022-11-14T06:38:54;13.97;;;9.07;;
54993;SDS011;40891;47.242;8.648;2022-11-14T06:41:20;12.73;;;8.73;;
54993;SDS011;40891;47.242;8.648;2022-11-14T06:43:47;13.43;;;9.23;;
54993;SDS011;40891;47.242;8.648;2022-11-14T06:46:17;14.00;;;8.63;;
54993;SDS011;40891;47.242;8.648;2022-11-14T06:48:44;13.97;;;8.40;;
54993;SDS011;40891;47.242;8.648;2022-11-14T06:51:11;12.07;;;8.47;;
54993;SDS011;40891;47.242;8.648;2022-11-14T06:53:38;12.87;;;8.30;;
54993;SDS011;40891;47.242;8.648;2022-11-14T06:56:07;12.30;;;8.67;;
54993;SDS011;40891;47.242;8.648;2022-11-14T06:58:38;12.70;;;8.50;;
54993;SDS011;40891;47.242;8.648;2022-11-14T07:03:49;18.43;;;9.97;;
54993;SDS011;40891;47.242;8.648;2022-11-14T07:06:23;13.07;;;8.83;;
54993;SDS011;40891;47.242;8.648;2022-11-14T07:08:53;13.00;;;9.00;;
54993;SDS011;40891;47.242;8.648;2022-11-14T07:11:20;14.70;;;8.23;;
54993;SDS011;40891;47.242;8.648;2022-11-14T07:13:57;10.47;;;7.13;;
54993;SDS011;40891;47.242;8.648;2022-11-14T07:16:28;11.60;;;7.67;;
54993;SDS011;40891;47.242;8.648;2022-11-14T07:18:58;15.43;;;8.03;;
54993;SDS011;40891;47.242;8.648;2022-11-14T07:21:25;16.13;;;8.50;;
54993;SDS011;40891;47.242;8.648;2022-11-14T07:23:51;11.73;;;7.83;;
54993;SDS011;40891;47.242;8.648;2022-11-14T07:26:16;13.03;;;7.43;;
54993;SDS011;40891;47.242;8.648;2022-11-14T07:28:42;17.07;;;9.03;;
54993;SDS011;40891;47.242;8.648;2022-11-14T07:31:09;19.07;;;8.90;;
54993;SDS011;40891;47.242;8.648;2022-11-14T07:33:37;13.23;;;8.17;;
54993;SDS011;40891;47.242;8.648;2022-11-14T07:36:02;13.83;;;8.67;;
54993;SDS011;40891;47.242;8.648;2022-11-14T07:38:32;17.33;;;9.63;;
54993;SDS011;40891;47.242;8.648;2022-11-14T07:41:00;12.83;;;8.53;;
54993;SDS011;40891;47.242;8.648;2022-11-14T07:43:27;13.57;;;8.53;;
54993;SDS011;40891;47.242;8.648;2022-11-14T07:45:53;10.57;;;7.37;;
54993;SDS011;40891;47.242;8.648;2022-11-14T07:48:23;12.43;;;8.27;;
54993;SDS011;40891;47.242;8.648;2022-11-14T07:50:48;13.60;;;7.70;;
54993;SDS011;40891;47.242;8.648;2022-11-14T07:53:14;15.10;;;9.17;;
54993;SDS011;40891;47.242;8.648;2022-11-14T07:55:41;16.50;;;8.53;;
54993;SDS011;40891;47.242;8.648;2022-11-14T07:58:07;19.83;;;9.00;;
54993;SDS011;40891;47.242;8.648;2022-11-14T08:00:32;11.73;;;6.50;;
54993;SDS011;40891;47.242;8.648;2022-11-14T08:02:58;12.50;;;6.80;;
54993;SDS011;40891;47.242;8.648;2022-11-14T08:05:23;11.43;;;6.53;;
54993;SDS011;40891;47.242;8.648;2022-11-14T08:07:52;13.93;;;7.10;;
54993;SDS011;40891;47.242;8.648;2022-11-14T08:10:17;11.97;;;7.70;;
54993;SDS011;40891;47.242;8.648;2022-11-14T08:12:43;10.30;;;7.23;;
54993;SDS011;40891;47.242;8.648;2022-11-14T08:15:10;13.13;;;8.30;;
54993;SDS011;40891;47.242;8.648;2022-11-14T08:17:37;11.37;;;6.90;;
54993;SDS011;40891;47.242;8.648;2022-11-14T08:20:06;12.40;;;7.70;;
54993;SDS011;40891;47.242;8.648;2022-11-14T08:22:32;11.83;;;7.60;;
54993;SDS011;40891;47.242;8.648;2022-11-14T08:24:58;12.07;;;7.10;;
54993;SDS011;40891;47.242;8.648;2022-11-14T08:27:23;10.80;;;7.23;;
54993;SDS011;40891;47.242;8.648;2022-11-14T08:29:49;12.90;;;7.80;;
54993;SDS011;40891;47.242;8.648;2022-11-14T08:32:15;13.93;;;8.10;;
54993;SDS011;40891;47.242;8.648;2022-11-14T08:34:41;11.60;;;8.07;;
54993;SDS011;40891;47.242;8.648;2022-11-14T08:37:06;14.00;;;8.20;;
54993;SDS011;40891;47.242;8.648;2022-11-14T08:39:32;12.17;;;8.47;;
54993;SDS011;40891;47.242;8.648;2022-11-14T08:41:57;13.37;;;8.17;;
54993;SDS011;40891;47.242;8.648;2022-11-14T08:44:22;14.87;;;8.43;;
54993;SDS011;40891;47.242;8.648;2022-11-14T08:46:48;10.97;;;7.50;;
54993;SDS011;40891;47.242;8.648;2022-11-14T08:49:14;13.27;;;8.77;;
54993;SDS011;40891;47.242;8.648;2022-11-14T08:51:39;19.23;;;8.97;;
54993;SDS011;40891;47.242;8.648;2022-11-14T08:54:05;15.03;;;8.33;;
54993;SDS011;40891;47.242;8.648;2022-11-14T08:56:30;11.20;;;7.63;;
54993;SDS011;40891;47.242;8.648;2022-11-14T08:58:56;11.37;;;6.67;;
54993;SDS011;40891;47.242;8.648;2022-11-14T09:01:21;10.33;;;6.37;;
54993;SDS011;40891;47.242;8.648;2022-11-14T09:03:46;8.27;;;4.83;;
54993;SDS011;40891;47.242;8.648;2022-11-14T09:06:12;8.80;;;3.83;;
54993;SDS011;40891;47.242;8.648;2022-11-14T09:08:37;4.47;;;2.90;;
54993;SDS011;40891;47.242;8.648;2022-11-14T09:11:02;5.00;;;3.17;;
54993;SDS011;40891;47.242;8.648;2022-11-14T09:13:31;3.70;;;2.43;;
54993;SDS011;40891;47.242;8.648;2022-11-14T09:15:57;4.83;;;1.83;;
54993;SDS011;40891;47.242;8.648;2022-11-14T09:18:23;2.57;;;1.80;;
54993;SDS011;40891;47.242;8.648;2022-11-14T09:20:48;2.30;;;1.70;;
54993;SDS011;40891;47.242;8.648;2022-11-14T09:23:13;3.83;;;1.53;;
54993;SDS011;40891;47.242;8.648;2022-11-14T09:25:39;2.60;;;1.70;;
54993;SDS011;40891;47.242;8.648;2022-11-14T09:28:07;3.93;;;1.60;;
54993;SDS011;40891;47.242;8.648;2022-11-14T09:30:34;1.80;;;1.40;;
54993;SDS011;40891;47.242;8.648;2022-11-14T09:33:01;4.47;;;1.97;;
54993;SDS011;40891;47.242;8.648;2022-11-14T09:35:27;2.77;;;1.90;;
54993;SDS011;40891;47.242;8.648;2022-11-14T09:40:26;1.80;;;1.10;;
54993;SDS011;40891;47.242;8.648;2022-11-14T09:45:23;2.53;;;1.13;;
54993;SDS011;40891;47.242;8.648;2022-11-14T09:47:50;1.83;;;1.17;;
54993;SDS011;40891;47.242;8.648;2022-11-14T09:50:30;3.13;;;1.40;;
54993;SDS011;40891;47.242;8.648;2022-11-14T09:53:00;1.87;;;1.20;;
54993;SDS011;40891;47.242;8.648;2022-11-14T09:55:31;2.97;;;1.60;;
54993;SDS011;40891;47.242;8.648;2022-11-14T09:57:59;4.00;;;1.30;;
54993;SDS011;40891;47.242;8.648;2022-11-14T10:00:27;2.17;;;1.40;;
54993;SDS011;40891;47.242;8.648;2022-11-14T10:03:10;1.87;;;1.30;;
54993;SDS011;40891;47.242;8.648;2022-11-14T10:17:07;5.10;;;1.53;;
54993;SDS011;40891;47.242;8.648;2022-11-14T10:25:36;1.37;;;0.93;;
54993;SDS011;40891;47.242;8.648;2022-11-14T10:30:59;1.10;;;1.00;;
54993;SDS011;40891;47.242;8.648;2022-11-14T10:33:35;3.23;;;0.97;;
54993;SDS011;40891;47.242;8.648;2022-11-14T10:39:11;2.10;;;0.83;;
54993;SDS011;40891;47.242;8.648;2022-11-14T10:41:42;1.77;;;0.70;;
54993;SDS011;40891;47.242;8.648;2022-11-14T10:44:12;1.70;;;0.90;;
54993;SDS011;40891;47.242;8.648;2022-11-14T10:46:46;0.97;;;0.80;;
54993;SDS011;40891;47.242;8.648;2022-11-14T10:49:17;1.60;;;0.80;;
54993;SDS011;40891;47.242;8.648;2022-11-14T10:51:45;1.80;;;0.80;;
54993;SDS011;40891;47.242;8.648;2022-11-14T10:56:48;1.83;;;0.60;;
54993;SDS011;40891;47.242;8.648;2022-11-14T10:59:18;3.10;;;0.53;;
54993;SDS011;40891;47.242;8.648;2022-11-14T11:01:52;0.77;;;0.60;;
54993;SDS011;40891;47.242;8.648;2022-11-14T11:06:49;0.80;;;0.70;;
54993;SDS011;40891;47.242;8.648;2022-11-14T11:12:05;1.90;;;0.60;;
54993;SDS011;40891;47.242;8.648;2022-11-14T11:14:32;1.25;;;0.90;;
54993;SDS011;40891;47.242;8.648;2022-11-14T11:19:37;2.27;;;0.97;;
54993;SDS011;40891;47.242;8.648;2022-11-14T11:22:03;3.75;;;1.30;;
54993;SDS011;40891;47.242;8.648;2022-11-14T11:24:33;1.52;;;1.00;;
54993;SDS011;40891;47.242;8.648;2022-11-14T11:30:27;2.15;;;0.95;;
54993;SDS011;40891;47.242;8.648;2022-11-14T11:32:50;1.97;;;1.10;;
54993;SDS011;40891;47.242;8.648;2022-11-14T11:35:16;2.60;;;1.35;;
54993;SDS011;40891;47.242;8.648;2022-11-14T11:37:45;2.95;;;1.40;;
54993;SDS011;40891;47.242;8.648;2022-11-14T11:40:19;3.85;;;1.38;;
54993;SDS011;40891;47.242;8.648;2022-11-14T11:42:55;3.22;;;0.98;;
54993;SDS011;40891;47.242;8.648;2022-11-14T11:45:28;1.30;;;0.82;;
54993;SDS011;40891;47.242;8.648;2022-11-14T11:47:58;2.08;;;1.17;;
54993;SDS011;40891;47.242;8.648;2022-11-14T11:50:28;3.72;;;1.13;;
54993;SDS011;40891;47.242;8.648;2022-11-14T11:53:11;2.35;;;1.08;;
54993;SDS011;40891;47.242;8.648;2022-11-14T11:55:43;2.03;;;1.08;;
54993;SDS011;40891;47.242;8.648;2022-11-14T12:00:57;3.22;;;1.20;;
54993;SDS011;40891;47.242;8.648;2022-11-14T12:03:23;1.13;;;0.95;;
54993;SDS011;40891;47.242;8.648;2022-11-14T12:06:00;2.10;;;1.13;;
54993;SDS011;40891;47.242;8.648;2022-11-14T12:08:36;2.38;;;1.20;;
54993;SDS011;40891;47.242;8.648;2022-11-14T12:11:03;1.40;;;1.00;;
54993;SDS011;40891;47.242;8.648;2022-11-14T12:19:30;3.50;;;1.52;;
54993;SDS011;40891;47.242;8.648;2022-11-14T12:32:35;0.60;;;0.57;;
54993;SDS011;40891;47.242;8.648;2022-11-14T12:35:04;3.17;;;1.05;;
54993;SDS011;40891;47.242;8.648;2022-11-14T12:37:33;1.10;;;0.82;;
54993;SDS011;40891;47.242;8.648;2022-11-14T12:40:07;2.00;;;0.90;;
54993;SDS011;40891;47.242;8.648;2022-11-14T12:42:47;2.63;;;1.10;;
54993;SDS011;40891;47.242;8.648;2022-11-14T12:50:53;0.90;;;0.80;;
54993;SDS011;40891;47.242;8.648;2022-11-14T12:56:12;2.13;;;0.90;;
54993;SDS011;40891;47.242;8.648;2022-11-14T13:04:17;2.72;;;0.98;;
54993;SDS011;40891;47.242;8.648;2022-11-14T13:07:20;2.13;;;1.00;;
54993;SDS011;40891;47.242;8.648;2022-11-14T13:10:09;1.45;;;0.90;;
54993;SDS011;40891;47.242;8.648;2022-11-14T13:12:36;2.35;;;0.98;;
54993;SDS011;40891;47.242;8.648;2022-11-14T13:21:04;1.33;;;1.02;;
54993;SDS011;40891;47.242;8.648;2022-11-14T13:24:09;1.42;;;0.82;;
54993;SDS011;40891;47.242;8.648;2022-11-14T13:26:39;2.17;;;0.70;;
54993;SDS011;40891;47.242;8.648;2022-11-14T13:29:06;1.17;;;0.77;;
54993;SDS011;40891;47.242;8.648;2022-11-14T13:34:00;1.60;;;0.65;;
54993;SDS011;40891;47.242;8.648;2022-11-14T13:36:58;3.78;;;0.80;;
54993;SDS011;40891;47.242;8.648;2022-11-14T13:47:55;2.78;;;1.05;;
54993;SDS011;40891;47.242;8.648;2022-11-14T13:50:42;3.40;;;1.05;;
54993;SDS011;40891;47.242;8.648;2022-11-14T13:53:21;4.25;;;1.10;;
54993;SDS011;40891;47.242;8.648;2022-11-14T13:55:58;6.18;;;1.35;;
54993;SDS011;40891;47.242;8.648;2022-11-14T14:09:50;4.97;;;1.20;;
54993;SDS011;40891;47.242;8.648;2022-11-14T14:12:44;3.17;;;1.43;;
54993;SDS011;40891;47.242;8.648;2022-11-14T14:15:48;2.10;;;0.87;;
54993;SDS011;40891;47.242;8.648;2022-11-14T14:18:29;4.50;;;1.27;;
54993;SDS011;40891;47.242;8.648;2022-11-14T14:32:33;2.73;;;1.33;;
54993;SDS011;40891;47.242;8.648;2022-11-14T14:34:58;3.27;;;1.90;;
54993;SDS011;40891;47.242;8.648;2022-11-14T14:37:25;4.23;;;2.17;;
54993;SDS011;40891;47.242;8.648;2022-11-14T14:39:58;6.73;;;2.27;;
54993;SDS011;40891;47.242;8.648;2022-11-14T14:42:24;3.13;;;1.73;;
54993;SDS011;40891;47.242;8.648;2022-11-14T14:44:51;5.67;;;1.97;;
54993;SDS011;40891;47.242;8.648;2022-11-14T14:47:31;2.97;;;1.60;;
54993;SDS011;40891;47.242;8.648;2022-11-14T14:49:58;3.80;;;2.00;;
54993;SDS011;40891;47.242;8.648;2022-11-14T14:54:59;4.87;;;1.70;;
54993;SDS011;40891;47.242;8.648;2022-11-14T14:57:27;2.87;;;1.67;;
54993;SDS011;40891;47.242;8.648;2022-11-14T15:00:00;2.90;;;1.60;;
54993;SDS011;40891;47.242;8.648;2022-11-14T15:02:28;3.03;;;1.47;;
54993;SDS011;40891;47.242;8.648;2022-11-14T15:04:54;6.30;;;2.10;;
54993;SDS011;40891;47.242;8.648;2022-11-14T15:07:23;5.90;;;2.47;;
54993;SDS011;40891;47.242;8.648;2022-11-14T15:10:00;5.67;;;2.30;;
54993;SDS011;40891;47.242;8.648;2022-11-14T15:12:28;3.33;;;1.60;;
54993;SDS011;40891;47.242;8.648;2022-11-14T15:14:55;4.17;;;1.83;;
54993;SDS011;40891;47.242;8.648;2022-11-14T15:17:21;4.33;;;2.13;;
54993;SDS011;40891;47.242;8.648;2022-11-14T15:19:49;4.47;;;1.57;;
54993;SDS011;40891;47.242;8.648;2022-11-14T15:24:42;5.37;;;2.07;;
54993;SDS011;40891;47.242;8.648;2022-11-14T15:27:12;3.27;;;1.80;;
54993;SDS011;40891;47.242;8.648;2022-11-14T15:29:45;9.67;;;2.00;;
54993;SDS011;40891;47.242;8.648;2022-11-14T15:32:16;10.30;;;4.13;;
54993;SDS011;40891;47.242;8.648;2022-11-14T15:35:09;7.37;;;3.57;;
54993;SDS011;40891;47.242;8.648;2022-11-14T15:38:01;2.80;;;1.17;;
54993;SDS011;40891;47.242;8.648;2022-11-14T15:40:36;2.80;;;1.50;;
54993;SDS011;40891;47.242;8.648;2022-11-14T15:46:03;7.43;;;1.80;;
54993;SDS011;40891;47.242;8.648;2022-11-14T15:48:29;5.40;;;1.93;;
54993;SDS011;40891;47.242;8.648;2022-11-14T15:50:55;5.90;;;1.53;;
54993;SDS011;40891;47.242;8.648;2022-11-14T15:55:50;3.07;;;1.77;;
54993;SDS011;40891;47.242;8.648;2022-11-14T15:58:15;3.47;;;1.60;;
54993;SDS011;40891;47.242;8.648;2022-11-14T16:00:43;4.67;;;1.60;;
54993;SDS011;40891;47.242;8.648;2022-11-14T16:03:13;3.77;;;1.57;;
54993;SDS011;40891;47.242;8.648;2022-11-14T16:05:41;4.63;;;1.93;;
54993;SDS011;40891;47.242;8.648;2022-11-14T16:08:08;3.53;;;1.80;;
54993;SDS011;40891;47.242;8.648;2022-11-14T16:10:35;5.77;;;1.50;;
54993;SDS011;40891;47.242;8.648;2022-11-14T16:13:00;3.23;;;1.13;;
54993;SDS011;40891;47.242;8.648;2022-11-14T16:15:26;1.73;;;1.10;;
54993;SDS011;40891;47.242;8.648;2022-11-14T16:17:51;6.03;;;1.70;;
54993;SDS011;40891;47.242;8.648;2022-11-14T16:20:17;2.90;;;1.43;;
54993;SDS011;40891;47.242;8.648;2022-11-14T16:22:45;1.80;;;1.40;;
54993;SDS011;40891;47.242;8.648;2022-11-14T16:27:46;2.30;;;1.00;;
54993;SDS011;40891;47.242;8.648;2022-11-14T16:30:12;4.33;;;1.43;;
54993;SDS011;40891;47.242;8.648;2022-11-14T16:32:39;3.63;;;1.33;;
54993;SDS011;40891;47.242;8.648;2022-11-14T16:35:11;2.47;;;1.10;;
54993;SDS011;40891;47.242;8.648;2022-11-14T16:37:38;3.53;;;1.43;;
54993;SDS011;40891;47.242;8.648;2022-11-14T16:40:03;2.17;;;1.20;;
54993;SDS011;40891;47.242;8.648;2022-11-14T16:42:29;3.13;;;1.27;;
54993;SDS011;40891;47.242;8.648;2022-11-14T16:45:01;2.00;;;1.53;;
54993;SDS011;40891;47.242;8.648;2022-11-14T16:47:27;2.00;;;1.47;;
54993;SDS011;40891;47.242;8.648;2022-11-14T16:49:52;1.90;;;1.47;;
54993;SDS011;40891;47.242;8.648;2022-11-14T16:52:18;2.67;;;1.60;;
54993;SDS011;40891;47.242;8.648;2022-11-14T16:54:44;5.13;;;1.50;;